createdAt,value
2022-10-13T00:01:14.541Z,8.84
2022-10-13T00:03:45.986Z,8.72
2022-10-13T00:06:14.537Z,8.71
2022-10-13T00:08:44.271Z,8.77
2022-10-13T00:11:17.379Z,8.74
2022-10-13T00:13:46.019Z,8.78
2022-10-13T00:16:15.209Z,8.86
2022-10-13T00:18:43.180Z,8.89
2022-10-13T00:21:13.901Z,8.93
2022-10-13T00:23:41.459Z,8.96
2022-10-13T00:26:10.966Z,8.95
2022-10-13T00:28:40.373Z,8.94
2022-10-13T00:31:15.993Z,9.02
2022-10-13T00:33:43.743Z,8.94
2022-10-13T00:36:11.356Z,9.01
2022-10-13T00:38:39.116Z,9.00
2022-10-13T00:41:06.948Z,9.03
2022-10-13T00:43:55.183Z,9.07
2022-10-13T00:46:23.475Z,9.04
2022-10-13T00:48:52.107Z,9.03
2022-10-13T00:51:22.545Z,9.02
2022-10-13T00:53:50.172Z,8.97
2022-10-13T00:56:19.805Z,9.03
2022-10-13T00:58:48.225Z,8.93
2022-10-13T01:01:17.502Z,8.90
2022-10-13T01:03:45.044Z,8.89
2022-10-13T01:06:14.194Z,8.89
2022-10-13T01:08:41.772Z,8.93
2022-10-13T01:11:33.638Z,8.85
2022-10-13T01:14:08.301Z,8.90
2022-10-13T01:16:41.544Z,9.03
2022-10-13T01:19:25.721Z,9.05
2022-10-13T01:22:03.034Z,9.08
2022-10-13T01:24:44.644Z,9.07
2022-10-13T01:27:31.657Z,8.98
2022-10-13T01:30:12.690Z,8.95
2022-10-13T01:32:55.581Z,9.00
2022-10-13T01:35:28.280Z,9.00
2022-10-13T01:38:01.326Z,9.00
2022-10-13T01:40:33.225Z,8.89
2022-10-13T01:43:05.879Z,8.97
2022-10-13T01:45:38.051Z,8.91
2022-10-13T01:48:07.041Z,8.89
2022-10-13T01:50:35.595Z,8.80
2022-10-13T01:53:05.103Z,8.77
2022-10-13T01:55:32.771Z,8.82
2022-10-13T01:58:00.293Z,8.82
2022-10-13T02:00:27.949Z,8.85
2022-10-13T02:03:05.624Z,8.84
2022-10-13T02:05:39.766Z,8.66
2022-10-13T02:08:12.391Z,8.71
2022-10-13T02:10:43.993Z,8.54
2022-10-13T02:13:14.054Z,8.44
2022-10-13T02:15:42.807Z,8.40
2022-10-13T02:18:13.617Z,8.44
2022-10-13T02:20:41.578Z,8.44
2022-10-13T02:23:12.838Z,8.47
2022-10-13T02:25:40.798Z,8.36
2022-10-13T02:28:09.037Z,8.38
2022-10-13T02:30:36.869Z,8.41
2022-10-13T02:33:04.835Z,8.44
2022-10-13T02:35:33.776Z,8.44
2022-10-13T02:38:01.455Z,8.49
2022-10-13T02:40:29.273Z,8.50
2022-10-13T02:42:56.839Z,8.55
2022-10-13T02:45:24.625Z,8.63
2022-10-13T02:47:52.144Z,8.66
2022-10-13T02:50:19.659Z,8.70
2022-10-13T02:52:48.569Z,8.74
2022-10-13T02:55:16.277Z,8.82
2022-10-13T02:57:43.920Z,8.88
2022-10-13T03:00:12.702Z,8.96
2022-10-13T03:02:40.240Z,8.99
2022-10-13T03:05:08.373Z,9.05
2022-10-13T03:07:36.064Z,9.11
2022-10-13T03:10:05.847Z,9.15
2022-10-13T03:12:33.406Z,9.18
2022-10-13T03:15:00.963Z,9.22
2022-10-13T03:17:28.598Z,9.23
2022-10-13T03:19:56.142Z,9.27
2022-10-13T03:22:23.733Z,9.22
2022-10-13T03:24:51.862Z,9.21
2022-10-13T03:27:20.850Z,9.19
2022-10-13T03:29:48.442Z,9.27
2022-10-13T03:32:16.576Z,9.26
2022-10-13T03:34:44.155Z,9.28
2022-10-13T03:37:11.750Z,9.27
2022-10-13T03:39:39.301Z,9.28
2022-10-13T03:42:07.439Z,9.25
2022-10-13T03:44:36.337Z,9.32
2022-10-13T03:47:04.366Z,9.24
2022-10-13T03:49:31.891Z,9.28
2022-10-13T03:51:59.496Z,9.32
2022-10-13T03:54:27.327Z,9.38
2022-10-13T03:56:55.123Z,9.30
2022-10-13T03:59:22.651Z,9.32
2022-10-13T04:01:51.624Z,9.38
2022-10-13T04:04:19.261Z,9.33
2022-10-13T04:06:46.803Z,9.24
2022-10-13T04:09:14.362Z,9.19
2022-10-13T04:11:41.890Z,9.23
2022-10-13T04:14:09.896Z,9.04
2022-10-13T04:16:39.591Z,9.12
2022-10-13T04:19:08.626Z,9.11
2022-10-13T04:21:36.365Z,9.04
2022-10-13T04:24:04.605Z,9.12
2022-10-13T04:26:34.595Z,9.06
2022-10-13T04:29:04.149Z,9.08
2022-10-13T04:31:32.658Z,9.04
2022-10-13T04:34:00.195Z,9.15
2022-10-13T04:36:29.588Z,9.18
2022-10-13T04:38:57.154Z,9.20
2022-10-13T04:41:25.800Z,9.16
2022-10-13T04:43:54.055Z,9.14
2022-10-13T04:46:23.803Z,9.03
2022-10-13T04:48:51.402Z,8.97
2022-10-13T04:51:21.669Z,9.06
2022-10-13T04:53:55.370Z,9.06
2022-10-13T04:56:22.897Z,8.99
2022-10-13T04:58:52.649Z,8.77
2022-10-13T05:01:22.542Z,8.46
2022-10-13T05:03:52.062Z,8.31
2022-10-13T05:06:21.191Z,8.33
2022-10-13T05:08:50.177Z,8.30
2022-10-13T05:11:19.906Z,8.36
2022-10-13T05:13:47.764Z,8.35
2022-10-13T05:16:17.620Z,8.40
2022-10-13T05:18:45.296Z,8.34
2022-10-13T05:21:13.931Z,8.30
2022-10-13T05:23:41.972Z,8.33
2022-10-13T05:26:13.453Z,8.49
2022-10-13T05:28:41.192Z,8.43
2022-10-13T05:31:12.778Z,8.48
2022-10-13T05:33:40.730Z,8.48
2022-10-13T05:36:09.791Z,8.46
2022-10-13T05:38:37.477Z,8.49
2022-10-13T05:41:05.982Z,8.40
2022-10-13T05:43:35.146Z,8.43
2022-10-13T05:46:03.359Z,8.44
2022-10-13T05:48:32.079Z,8.50
2022-10-13T05:51:01.816Z,8.49
2022-10-13T05:53:36.587Z,8.47
2022-10-13T05:56:07.634Z,8.47
2022-10-13T05:58:39.482Z,8.44
2022-10-13T06:01:08.213Z,8.48
2022-10-13T06:03:36.476Z,8.41
2022-10-13T06:06:04.122Z,8.47
2022-10-13T06:08:31.775Z,8.40
2022-10-13T06:10:59.427Z,8.49
2022-10-13T06:13:26.971Z,8.58
2022-10-13T06:15:55.929Z,8.61
2022-10-13T06:18:23.480Z,8.64
2022-10-13T06:20:51.114Z,8.74
2022-10-13T06:23:18.677Z,8.73
2022-10-13T06:25:49.240Z,8.80
2022-10-13T06:28:18.576Z,8.95
2022-10-13T06:30:47.900Z,8.82
2022-10-13T06:33:16.796Z,8.77
2022-10-13T06:35:44.328Z,8.77
2022-10-13T06:38:11.907Z,8.88
2022-10-13T06:40:39.606Z,8.89
2022-10-13T06:43:07.137Z,8.95
2022-10-13T06:45:34.755Z,8.98
2022-10-13T06:48:02.554Z,9.02
2022-10-13T06:50:32.203Z,9.08
2022-10-13T06:52:59.782Z,9.07
2022-10-13T06:55:27.736Z,9.15
2022-10-13T06:57:55.307Z,9.22
2022-10-13T07:00:23.115Z,9.22
2022-10-13T07:02:52.429Z,9.23
2022-10-13T07:05:20.252Z,9.26
2022-10-13T07:07:49.168Z,9.25
2022-10-13T07:10:16.861Z,9.29
2022-10-13T07:12:44.423Z,9.35
2022-10-13T07:15:12.305Z,9.31
2022-10-13T07:17:39.868Z,9.30
2022-10-13T07:20:08.625Z,9.27
2022-10-13T07:22:36.373Z,9.24
2022-10-13T07:25:06.140Z,9.33
2022-10-13T07:27:33.713Z,9.35
2022-10-13T07:30:01.303Z,9.38
2022-10-13T07:32:29.031Z,9.36
2022-10-13T07:34:56.990Z,9.52
2022-10-13T07:37:24.718Z,9.43
2022-10-13T07:39:52.287Z,9.49
2022-10-13T07:42:21.210Z,9.55
2022-10-13T07:44:48.798Z,9.63
2022-10-13T07:47:16.315Z,9.75
2022-10-13T07:49:43.879Z,9.73
2022-10-13T07:52:11.594Z,9.81
2022-10-13T07:54:39.251Z,9.84
2022-10-13T07:57:06.837Z,9.92
2022-10-13T07:59:35.939Z,9.95
2022-10-13T08:02:03.623Z,10.03
2022-10-13T08:04:31.808Z,9.96
2022-10-13T08:06:59.459Z,9.91
2022-10-13T08:09:27.039Z,9.96
2022-10-13T08:11:58.891Z,10.06
2022-10-13T08:14:28.835Z,10.04
2022-10-13T08:16:58.449Z,9.92
2022-10-13T08:19:26.681Z,9.95
2022-10-13T08:21:59.102Z,9.95
2022-10-13T08:24:27.998Z,9.97
2022-10-13T08:26:55.931Z,10.00
2022-10-13T08:29:24.276Z,9.96
2022-10-13T08:31:52.864Z,10.07
2022-10-13T08:34:22.741Z,10.11
2022-10-13T08:36:54.825Z,10.15
2022-10-13T08:39:22.916Z,10.11
2022-10-13T08:41:50.640Z,10.08
2022-10-13T08:47:16.247Z,10.17
2022-10-13T08:49:46.198Z,10.17
2022-10-13T08:52:18.632Z,10.29
2022-10-13T08:54:46.537Z,10.33
2022-10-13T08:57:14.130Z,10.32
2022-10-13T08:59:41.871Z,10.18
2022-10-13T09:02:14.099Z,10.19
2022-10-13T09:04:42.681Z,10.24
2022-10-13T09:07:16.123Z,10.22
2022-10-13T09:09:43.787Z,10.28
2022-10-13T09:12:12.183Z,10.35
2022-10-13T09:14:41.117Z,10.44
2022-10-13T09:17:17.237Z,10.49
2022-10-13T09:19:46.216Z,10.51
2022-10-13T09:22:27.223Z,10.52
2022-10-13T09:25:25.063Z,10.56
2022-10-13T09:27:54.870Z,10.61
2022-10-13T09:30:30.787Z,10.49
2022-10-13T09:33:17.421Z,10.44
2022-10-13T09:35:46.663Z,10.33
2022-10-13T09:38:17.296Z,10.34
2022-10-13T09:40:45.713Z,10.31
2022-10-13T09:43:29.621Z,10.27
2022-10-13T09:45:57.578Z,10.31
2022-10-13T09:48:28.754Z,10.25
2022-10-13T09:50:58.042Z,10.25
2022-10-13T09:53:32.138Z,10.37
2022-10-13T09:56:14.002Z,10.42
2022-10-13T09:58:46.430Z,10.45
2022-10-13T10:01:22.116Z,10.45
2022-10-13T10:03:50.479Z,10.65
2022-10-13T10:06:18.701Z,10.74
2022-10-13T10:09:03.377Z,10.90
2022-10-13T10:11:35.081Z,11.07
2022-10-13T10:14:14.017Z,10.94
2022-10-13T10:16:46.034Z,10.90
2022-10-13T10:19:18.475Z,10.94
2022-10-13T10:21:50.775Z,11.01
2022-10-13T10:24:25.096Z,11.33
2022-10-13T10:26:56.496Z,11.51
2022-10-13T10:29:33.733Z,11.62
2022-10-13T10:32:06.689Z,11.80
2022-10-13T10:34:38.530Z,11.88
2022-10-13T10:37:15.560Z,11.68
2022-10-13T10:39:49.319Z,11.89
2022-10-13T10:42:35.569Z,11.96
2022-10-13T10:45:04.765Z,12.10
2022-10-13T10:47:37.788Z,12.29
2022-10-13T10:50:07.866Z,12.15
2022-10-13T10:52:43.018Z,12.40
2022-10-13T10:55:19.204Z,12.20
2022-10-13T10:58:03.160Z,12.30
2022-10-13T11:00:32.535Z,12.28
2022-10-13T11:03:03.431Z,12.34
2022-10-13T11:05:59.412Z,12.49
2022-10-13T11:08:29.663Z,12.52
2022-10-13T11:11:38.384Z,12.50
2022-10-13T11:14:30.489Z,12.42
2022-10-13T11:17:16.634Z,12.42
2022-10-13T11:19:45.268Z,12.52
2022-10-13T11:22:18.970Z,12.64
2022-10-13T11:24:58.394Z,12.66
2022-10-13T11:27:39.925Z,12.64
2022-10-13T11:30:41.114Z,12.49
2022-10-13T11:33:36.281Z,12.56
2022-10-13T11:36:32.627Z,12.72
2022-10-13T11:39:08.038Z,12.83
2022-10-13T11:41:43.095Z,13.05
2022-10-13T11:44:17.091Z,13.23
2022-10-13T11:46:56.979Z,13.44
2022-10-13T11:49:39.950Z,13.66
2022-10-13T11:52:26.072Z,13.72
2022-10-13T11:54:56.873Z,13.79
2022-10-13T11:57:26.409Z,13.92
2022-10-13T11:59:57.256Z,14.07
2022-10-13T12:02:26.870Z,14.20
2022-10-13T12:05:03.088Z,14.28
2022-10-13T12:07:34.730Z,14.40
2022-10-13T12:10:04.902Z,14.52
2022-10-13T12:12:32.521Z,14.54
2022-10-13T12:15:05.911Z,14.59
2022-10-13T12:17:38.744Z,14.59
2022-10-13T12:20:21.452Z,14.57
2022-10-13T12:22:49.343Z,14.59
2022-10-13T12:25:18.831Z,14.46
2022-10-13T12:27:48.941Z,14.39
2022-10-13T12:30:23.997Z,14.39
2022-10-13T12:32:53.184Z,14.28
2022-10-13T12:35:21.899Z,14.19
2022-10-13T12:37:49.793Z,14.20
2022-10-13T12:40:18.322Z,14.29
2022-10-13T12:42:46.599Z,14.13
2022-10-13T12:45:16.281Z,14.11
2022-10-13T12:47:52.844Z,14.14
2022-10-13T12:50:38.364Z,14.12
2022-10-13T12:53:22.552Z,14.12
2022-10-13T12:55:53.310Z,14.12
2022-10-13T12:58:23.920Z,14.23
2022-10-13T13:01:22.519Z,14.24
2022-10-13T13:03:57.489Z,14.32
2022-10-13T13:06:33.029Z,14.41
2022-10-13T13:09:25.465Z,14.40
2022-10-13T13:12:06.303Z,14.49
2022-10-13T13:14:38.329Z,14.70
2022-10-13T13:17:08.654Z,14.58
2022-10-13T13:19:37.908Z,14.64
2022-10-13T13:22:05.969Z,14.61
2022-10-13T13:24:41.105Z,14.69
2022-10-13T13:27:17.171Z,14.77
2022-10-13T13:29:44.998Z,14.72
2022-10-13T13:32:13.919Z,14.74
2022-10-13T13:34:43.550Z,14.78
2022-10-13T13:37:14.706Z,14.82
2022-10-13T13:39:42.334Z,14.92
2022-10-13T13:42:14.590Z,14.94
2022-10-13T13:44:42.327Z,14.90
2022-10-13T13:47:15.891Z,14.90
2022-10-13T13:49:45.071Z,14.96
2022-10-13T13:52:12.828Z,14.97
2022-10-13T13:54:40.576Z,14.98
2022-10-13T13:57:08.387Z,15.00
2022-10-13T13:59:36.311Z,14.92
2022-10-13T14:02:04.416Z,15.06
2022-10-13T14:04:32.167Z,15.08
2022-10-13T14:07:01.130Z,15.09
2022-10-13T14:09:28.877Z,14.95
2022-10-13T14:11:56.422Z,14.97
2022-10-13T14:14:23.972Z,14.94
2022-10-13T14:16:51.613Z,14.95
2022-10-13T14:19:19.301Z,14.91
2022-10-13T14:21:47.058Z,14.81
2022-10-13T14:24:15.977Z,14.86
2022-10-13T14:26:43.539Z,14.90
2022-10-13T14:29:11.141Z,14.81
2022-10-13T14:31:38.745Z,14.79
2022-10-13T14:34:06.303Z,14.75
2022-10-13T14:36:33.931Z,14.75
2022-10-13T14:39:01.545Z,14.69
2022-10-13T14:41:30.429Z,14.63
2022-10-13T14:43:58.185Z,14.66
2022-10-13T14:46:25.967Z,14.63
2022-10-13T14:48:53.708Z,14.68
2022-10-13T14:51:21.272Z,14.64
2022-10-13T14:53:48.865Z,14.58
2022-10-13T14:56:19.175Z,14.58
2022-10-13T14:58:48.623Z,14.49
2022-10-13T15:01:16.572Z,14.50
2022-10-13T15:03:44.560Z,14.41
2022-10-13T15:06:14.300Z,14.38
2022-10-13T15:08:42.223Z,14.33
2022-10-13T15:11:10.146Z,14.29
2022-10-13T15:13:38.035Z,14.22
2022-10-13T15:16:07.992Z,14.23
2022-10-13T15:18:36.289Z,14.13
2022-10-13T15:21:03.967Z,14.09
2022-10-13T15:23:32.583Z,14.05
2022-10-13T15:26:01.351Z,14.01
2022-10-13T15:28:30.224Z,13.97
2022-10-13T15:30:57.841Z,13.89
2022-10-13T15:33:28.575Z,13.85
2022-10-13T15:35:57.474Z,13.83
2022-10-13T15:38:28.213Z,13.92
2022-10-13T15:41:00.287Z,13.93
2022-10-13T15:43:28.267Z,13.90
2022-10-13T15:45:57.755Z,13.84
2022-10-13T15:48:26.707Z,13.80
2022-10-13T15:50:54.255Z,13.78
2022-10-13T15:53:21.841Z,13.72
2022-10-13T15:55:49.794Z,13.72
2022-10-13T15:58:17.803Z,13.68
2022-10-13T16:00:45.846Z,13.70
2022-10-13T16:03:16.629Z,13.70
2022-10-13T16:05:47.094Z,13.64
2022-10-13T16:08:15.566Z,13.59
2022-10-13T16:10:44.012Z,13.56
2022-10-13T16:13:15.776Z,13.52
2022-10-13T16:15:43.698Z,13.48
2022-10-13T16:18:11.264Z,13.45
2022-10-13T16:20:40.679Z,13.38
2022-10-13T16:23:09.691Z,13.40
2022-10-13T16:25:39.933Z,13.33
2022-10-13T16:28:07.498Z,13.35
2022-10-13T16:30:37.221Z,13.36
2022-10-13T16:33:04.999Z,13.31
2022-10-13T16:35:34.212Z,13.17
2022-10-13T16:38:01.973Z,13.28
2022-10-13T16:40:30.922Z,13.29
2022-10-13T16:42:58.453Z,13.21
2022-10-13T16:45:41.428Z,13.13
2022-10-13T16:48:13.859Z,13.14
2022-10-13T16:50:41.474Z,13.13
2022-10-13T16:53:09.687Z,13.13
2022-10-13T16:55:40.112Z,13.09
2022-10-13T16:58:07.688Z,13.05
2022-10-13T17:00:36.542Z,13.00
2022-10-13T17:03:04.471Z,13.03
2022-10-13T17:05:32.070Z,12.98
2022-10-13T17:07:59.648Z,12.99
2022-10-13T17:10:27.279Z,12.96
2022-10-13T17:12:56.212Z,12.94
2022-10-13T17:15:24.176Z,12.92
2022-10-13T17:17:51.705Z,12.90
2022-10-13T17:20:19.536Z,12.89
2022-10-13T17:22:47.241Z,12.86
2022-10-13T17:25:14.807Z,12.89
2022-10-13T17:27:42.314Z,12.84
2022-10-13T17:30:12.373Z,12.84
2022-10-13T17:32:40.210Z,12.80
2022-10-13T17:35:11.281Z,12.81
2022-10-13T17:37:39.049Z,12.83
2022-10-13T17:40:07.798Z,12.74
2022-10-13T17:42:35.533Z,12.75
2022-10-13T17:45:03.236Z,12.74
2022-10-13T17:47:32.189Z,12.75
2022-10-13T17:50:00.274Z,12.73
2022-10-13T17:52:28.344Z,12.74
2022-10-13T17:54:56.642Z,12.71
2022-10-13T17:57:25.511Z,12.70
2022-10-13T17:59:53.404Z,12.75
2022-10-13T18:02:21.707Z,12.76
2022-10-13T18:04:50.653Z,12.73
2022-10-13T18:07:18.579Z,12.74
2022-10-13T18:09:46.432Z,12.78
2022-10-13T18:12:14.027Z,12.75
2022-10-13T18:14:41.646Z,12.73
2022-10-13T18:17:09.222Z,12.76
2022-10-13T18:19:40.251Z,12.73
2022-10-13T18:22:09.516Z,12.68
2022-10-13T18:24:37.106Z,12.60
2022-10-13T18:27:04.924Z,12.64
2022-10-13T18:29:33.802Z,12.66
2022-10-13T18:32:01.320Z,12.69
2022-10-13T18:34:28.880Z,12.68
2022-10-13T18:36:56.433Z,12.72
2022-10-13T18:39:26.765Z,12.73
2022-10-13T18:41:55.558Z,12.71
2022-10-13T18:44:24.999Z,12.71
2022-10-13T18:46:53.807Z,12.67
2022-10-13T18:49:23.723Z,12.67
2022-10-13T18:51:51.873Z,12.69
2022-10-13T18:54:19.529Z,12.66
2022-10-13T18:56:48.437Z,12.65
2022-10-13T18:59:16.871Z,12.59
2022-10-13T19:01:44.487Z,12.57
2022-10-13T19:04:12.734Z,12.56
2022-10-13T19:06:40.979Z,12.59
2022-10-13T19:09:09.976Z,12.61
2022-10-13T19:11:38.083Z,12.60
2022-10-13T19:14:10.932Z,12.57
2022-10-13T19:16:40.313Z,12.56
2022-10-13T19:19:09.049Z,12.53
2022-10-13T19:21:37.457Z,12.52
2022-10-13T19:24:05.479Z,12.61
2022-10-13T19:26:34.120Z,12.53
2022-10-13T19:29:04.690Z,12.50
2022-10-13T19:31:35.070Z,12.51
2022-10-13T19:34:03.169Z,12.51
2022-10-13T19:36:33.005Z,12.49
2022-10-13T19:39:01.574Z,12.50
2022-10-13T19:41:30.695Z,12.52
2022-10-13T19:43:58.723Z,12.49
2022-10-13T19:46:26.347Z,12.45
2022-10-13T19:48:55.462Z,12.44
2022-10-13T19:51:23.172Z,12.44
2022-10-13T19:53:50.717Z,12.39
2022-10-13T19:56:21.200Z,12.47
2022-10-13T19:58:51.199Z,12.42
2022-10-13T20:01:19.883Z,12.42
2022-10-13T20:03:48.053Z,12.38
2022-10-13T20:06:18.147Z,12.39
2022-10-13T20:08:46.010Z,12.41
2022-10-13T20:11:19.333Z,12.45
2022-10-13T20:13:49.970Z,12.44
2022-10-13T20:16:19.844Z,12.43
2022-10-13T20:18:52.131Z,12.41
2022-10-13T20:21:21.115Z,12.39
2022-10-13T20:23:49.259Z,12.39
2022-10-13T20:26:17.094Z,12.40
2022-10-13T20:28:45.761Z,12.39
2022-10-13T20:31:14.362Z,12.40
2022-10-13T20:33:42.320Z,12.36
2022-10-13T20:36:13.574Z,12.35
2022-10-13T20:38:42.558Z,12.36
2022-10-13T20:41:15.458Z,12.38
2022-10-13T20:43:43.053Z,12.29
2022-10-13T20:46:11.463Z,12.26
2022-10-13T20:49:08.827Z,12.31
2022-10-13T20:51:28.302Z,12.27
2022-10-13T20:53:57.196Z,12.22
2022-10-13T20:56:26.318Z,12.20
2022-10-13T20:58:54.576Z,12.18
2022-10-13T21:01:23.186Z,12.21
2022-10-13T21:03:52.734Z,12.19
2022-10-13T21:06:20.579Z,12.20
2022-10-13T21:08:48.717Z,12.21
2022-10-13T21:11:20.095Z,12.23
2022-10-13T21:13:48.216Z,12.25
2022-10-13T21:16:17.404Z,12.24
2022-10-13T21:18:45.740Z,12.23
2022-10-13T21:21:13.304Z,12.26
2022-10-13T21:23:40.926Z,12.24
2022-10-13T21:26:10.292Z,12.20
2022-10-13T21:28:39.915Z,12.26
2022-10-13T21:31:09.124Z,12.18
2022-10-13T21:33:37.612Z,12.24
2022-10-13T21:36:06.901Z,12.22
2022-10-13T21:38:34.641Z,12.21
2022-10-13T21:41:05.131Z,12.23
2022-10-13T21:43:32.930Z,12.24
2022-10-13T21:46:10.752Z,12.22
2022-10-13T21:48:38.400Z,12.22
2022-10-13T21:51:14.105Z,12.23
2022-10-13T21:53:41.905Z,12.23
2022-10-13T21:56:11.541Z,12.25
2022-10-13T21:58:41.484Z,12.26
2022-10-13T22:01:10.991Z,12.26
2022-10-13T22:03:38.673Z,12.28
2022-10-13T22:06:07.584Z,12.26
2022-10-13T22:08:39.137Z,12.26
2022-10-13T22:11:08.086Z,12.25
2022-10-13T22:13:37.221Z,12.26
2022-10-13T22:16:05.754Z,12.27
2022-10-13T22:18:34.736Z,12.28
2022-10-13T22:21:02.839Z,12.30
2022-10-13T22:23:30.682Z,12.28
2022-10-13T22:25:58.349Z,12.27
2022-10-13T22:28:26.622Z,12.29
2022-10-13T22:30:54.581Z,12.29
2022-10-13T22:33:22.219Z,12.25
2022-10-13T22:35:51.110Z,12.27
2022-10-13T22:38:18.736Z,12.25
2022-10-13T22:40:46.325Z,12.20
2022-10-13T22:43:13.961Z,12.24
2022-10-13T22:45:50.741Z,12.21
2022-10-13T22:48:18.655Z,12.24
2022-10-13T22:50:46.381Z,12.21
2022-10-13T22:53:15.396Z,12.24
2022-10-13T22:55:46.619Z,12.20
2022-10-13T22:58:16.251Z,12.20
2022-10-13T23:00:44.472Z,12.19
2022-10-13T23:03:14.255Z,12.19
2022-10-13T23:05:42.458Z,12.18
2022-10-13T23:08:11.160Z,12.13
2022-10-13T23:10:40.167Z,12.11
2022-10-13T23:13:07.794Z,12.12
2022-10-13T23:15:35.641Z,12.12
2022-10-13T23:18:03.286Z,12.08
2022-10-13T23:20:31.441Z,12.13
2022-10-13T23:22:59.621Z,12.05
2022-10-13T23:25:27.836Z,12.03
2022-10-13T23:27:57.463Z,12.03
2022-10-13T23:30:25.737Z,11.99
2022-10-13T23:32:54.238Z,12.03
2022-10-13T23:35:22.452Z,11.97
2022-10-13T23:37:52.959Z,11.94
2022-10-13T23:40:21.496Z,11.93
2022-10-13T23:42:49.096Z,11.95
2022-10-13T23:45:18.203Z,11.92
2022-10-13T23:47:45.792Z,11.91
2022-10-13T23:50:13.364Z,11.90
2022-10-13T23:52:40.996Z,11.88
2022-10-13T23:55:09.430Z,11.84
2022-10-13T23:57:36.995Z,11.88
